KSTS

Charles M Schulz - Sonoma County Airport

Santa Rosa, California, USA
KSTS 251720Z 2518/2618 18007KT P6SM SCT010 TEMPO 2518/2519 4SM BR BKN006 FM252100 18008KT P6SM SKC FM260400 VRB04KT P6SM SCT008 FM260700 VRB03KT 6SM BR OVC005 FM261000 00000KT 3SM BR OVC003
Issued Valid From Valid To
Apr-25 @ 17:20 UTC
(59 minutes ago)
Apr-25 @ 18:00 UTC
(19 minutes ago)
Apr-26 @ 18:00 UTC
(in 24 hours)
Apr-25 @ 18:00 to Apr-25 @ 21:00
KSTS 251720Z 2518/2618 18007KT P6SM SCT010
Wind Visibility Clouds
180° at 7 knots Greater than 6 miles
  • Scattered at 1,000' AGL
Temporary Apr-25 @ 18:00 to Apr-25 @ 19:00
TEMPO 2518/2519 4SM BR BKN006
Visibility Clouds Conditions
4 miles
  • Broken at 600' AGL
  • Mist
From Apr-25 @ 21:00 to Apr-26 @ 04:00
FM252100 18008KT P6SM SKC
Wind Visibility Clouds
180° at 8 knots Greater than 6 miles
  • Clear skies
From Apr-26 @ 04:00 to Apr-26 @ 07:00
FM260400 VRB04KT P6SM SCT008
Wind Visibility Clouds
Variable at 4 knots Greater than 6 miles
  • Scattered at 800' AGL
From Apr-26 @ 07:00 to Apr-26 @ 10:00
FM260700 VRB03KT 6SM BR OVC005
Wind Visibility Clouds Conditions
Variable at 3 knots 6 miles
  • Overcast at 500' AGL
  • Mist
From Apr-26 @ 10:00 to Apr-26 @ 18:00
FM261000 00000KT 3SM BR OVC003
Visibility Clouds Conditions
3 miles
  • Overcast at 300' AGL
  • Mist
KSTS 251720Z 2518/2618 18007KT P6SM SCT010 TEMPO 2518/2519 4SM BR BKN006 FM252100 18008KT P6SM SKC FM260400 VRB04KT P6SM SCT008 FM260700 VRB03KT 6SM BR OVC005 FM261000 00000KT 3SM BR OVC003
Issued Apr-25 @ 17:20 UTC
(59 minutes ago)
Valid From Apr-25 @ 18:00 UTC
(19 minutes ago)
Valid To Apr-26 @ 18:00 UTC
(in 24 hours)
Apr-25 @ 18:00 - Apr-25 @ 21:00
Wind Visibility
180° at 7 knots Greater than 6 miles
Clouds
  • Scattered at 1,000' AGL
Temporary Apr-25 @ 18:00 - Apr-25 @ 19:00
Clouds
  • Broken at 600' AGL
Conditions
  • Mist
From Apr-25 @ 21:00 - Apr-26 @ 04:00
Wind Visibility
180° at 8 knots Greater than 6 miles
Clouds
  • Clear skies
From Apr-26 @ 04:00 - Apr-26 @ 07:00
Wind Visibility
Variable at 4 knots Greater than 6 miles
Clouds
  • Scattered at 800' AGL
From Apr-26 @ 07:00 - Apr-26 @ 10:00
Wind Visibility
Variable at 3 knots 6 miles
Clouds
  • Overcast at 500' AGL
Conditions
  • Mist
From Apr-26 @ 10:00 - Apr-26 @ 18:00
Clouds
  • Overcast at 300' AGL
Conditions
  • Mist